Time;durP1;ratioP1;P1;durP2;ratioP2;P2;SDS_P1;SDS_P2;PMS_P1;PMS_P2;Temp;Humidity;BMP_temperature;BMP_pressure;BME280_temperature;BME280_humidity;BME280_pressure;Samples;Min_cycle;Max_cycle;Signal;HPM_P1;HPM_P2
2021/03/25 00:00:39;;;;;;;58.63;38.90;;;1.90;99.90;;;;;;5009687;28;20625;-62
2021/03/25 00:03:09;;;;;;;61.70;39.23;;;1.00;99.90;;;;;;5008947;28;20582;-62
2021/03/25 00:05:36;;;;;;;64.50;41.77;;;1.90;99.90;;;;;;5009742;28;20210;-62
2021/03/25 00:08:06;;;;;;;64.50;40.63;;;2.10;99.90;;;;;;5009831;28;20651;-62
2021/03/25 00:10:35;;;;;;;65.47;39.93;;;1.90;99.90;;;;;;5015968;28;20450;-61
2021/03/25 00:13:02;;;;;;;61.47;38.13;;;1.90;99.90;;;;;;5008689;28;20230;-60
2021/03/25 00:15:30;;;;;;;67.50;41.23;;;1.80;99.90;;;;;;5008845;28;20628;-61
2021/03/25 00:17:56;;;;;;;58.13;35.63;;;1.80;99.90;;;;;;5010227;28;20572;-61
2021/03/25 00:20:25;;;;;;;61.17;38.70;;;1.70;99.90;;;;;;5009235;28;20223;-61
2021/03/25 00:22:51;;;;;;;58.90;37.67;;;0.90;99.90;;;;;;5008890;28;20985;-62
2021/03/25 00:25:22;;;;;;;59.10;36.73;;;1.70;99.90;;;;;;5009636;28;20220;-60
2021/03/25 00:27:48;;;;;;;64.83;40.00;;;1.80;99.90;;;;;;5008326;28;20486;-62
2021/03/25 00:30:17;;;;;;;55.43;36.70;;;2.30;99.90;;;;;;5008989;28;20616;-61
2021/03/25 00:32:43;;;;;;;57.53;36.37;;;1.60;99.90;;;;;;5008062;28;20634;-62
2021/03/25 00:35:11;;;;;;;67.80;41.97;;;1.80;99.90;;;;;;5008629;28;20215;-62
2021/03/25 00:37:40;;;;;;;66.37;41.70;;;1.50;99.90;;;;;;5008884;28;20223;-62
2021/03/25 00:40:08;;;;;;;72.63;44.03;;;1.60;99.90;;;;;;5009060;28;20431;-61
2021/03/25 00:42:35;;;;;;;66.77;41.13;;;1.50;99.90;;;;;;5008516;28;20225;-62
2021/03/25 00:45:03;;;;;;;59.80;36.93;;;1.40;99.90;;;;;;5003520;28;20226;-62
2021/03/25 00:47:29;;;;;;;64.80;41.27;;;1.40;99.90;;;;;;4990437;28;20229;-62
2021/03/25 00:49:56;;;;;;;64.50;38.73;;;1.40;99.90;;;;;;5008948;28;20393;-61
2021/03/25 00:52:23;;;;;;;67.90;42.67;;;1.20;99.90;;;;;;5008258;28;20404;-62
2021/03/25 00:54:50;;;;;;;64.63;40.83;;;1.40;99.90;;;;;;5009011;28;20506;-62
2021/03/25 00:57:16;;;;;;;70.07;42.87;;;1.40;99.90;;;;;;5007818;28;20285;-62
2021/03/25 00:59:43;;;;;;;72.57;44.53;;;1.30;99.90;;;;;;4990689;28;20226;-62
2021/03/25 01:02:09;;;;;;;70.03;42.93;;;1.20;99.90;;;;;;5007820;28;20693;-62
2021/03/25 01:04:37;;;;;;;77.10;44.20;;;1.20;99.90;;;;;;5008329;28;20317;-62
2021/03/25 01:07:04;;;;;;;68.17;41.77;;;1.20;99.90;;;;;;4989677;28;20938;-61
2021/03/25 01:09:31;;;;;;;71.97;43.97;;;1.10;99.90;;;;;;5008713;28;20924;-62
2021/03/25 01:11:58;;;;;;;80.83;43.00;;;1.20;99.90;;;;;;5008018;28;20261;-62
2021/03/25 01:14:26;;;;;;;69.50;41.47;;;1.00;99.90;;;;;;4989444;28;20577;-62
2021/03/25 01:16:54;;;;;;;74.70;43.90;;;2.30;99.90;;;;;;5008497;28;20493;-62
2021/03/25 01:19:26;;;;;;;66.73;40.27;;;1.20;99.90;;;;;;4990008;28;21108;-62
2021/03/25 01:21:53;;;;;;;63.97;37.83;;;1.20;99.90;;;;;;4989250;28;20430;-62
2021/03/25 01:24:20;;;;;;;75.87;44.40;;;2.00;99.90;;;;;;5008630;28;20225;-62
2021/03/25 01:26:48;;;;;;;64.60;40.57;;;0.60;99.90;;;;;;4989558;28;20634;-61
2021/03/25 01:29:15;;;;;;;65.57;41.03;;;1.10;99.90;;;;;;5008378;28;20720;-61
2021/03/25 01:31:42;;;;;;;71.30;42.73;;;1.30;99.90;;;;;;5012693;28;20439;-62
2021/03/25 01:34:14;;;;;;;70.83;42.07;;;1.00;99.90;;;;;;5008223;28;20518;-59
2021/03/25 01:36:40;;;;;;;61.30;39.63;;;1.80;99.90;;;;;;5008186;28;20366;-62
2021/03/25 01:39:07;;;;;;;65.70;39.83;;;1.00;99.90;;;;;;5008295;28;20207;-62
2021/03/25 01:41:37;;;;;;;69.77;43.07;;;1.00;99.90;;;;;;4989394;28;20545;-62
2021/03/25 01:44:06;;;;;;;64.57;37.53;;;0.90;99.90;;;;;;4989365;28;20214;-62
2021/03/25 01:46:37;;;;;;;63.63;38.63;;;1.40;99.90;;;;;;5007813;28;20418;-62
2021/03/25 01:49:07;;;;;;;68.27;38.87;;;1.10;99.90;;;;;;5008320;28;20490;-59
2021/03/25 01:51:53;;;;;;;59.70;38.13;;;0.10;99.90;;;;;;4988844;28;20222;-62
2021/03/25 01:54:52;;;;;;;57.90;36.33;;;1.50;99.90;;;;;;4989576;28;20721;-62
2021/03/25 01:57:57;;;;;;;62.67;38.03;;;0.90;99.90;;;;;;4989027;28;20675;-60
2021/03/25 02:00:36;;;;;;;53.47;32.97;;;0.90;99.90;;;;;;4985832;28;20219;-62
2021/03/25 02:03:23;;;;;;;51.87;33.33;;;0.90;99.90;;;;;;5000529;28;20260;-61
2021/03/25 02:05:58;;;;;;;59.03;36.47;;;1.50;99.90;;;;;;5007638;28;20831;-62
2021/03/25 02:08:33;;;;;;;61.13;38.40;;;1.00;99.90;;;;;;4988983;28;20326;-62
2021/03/25 02:11:08;;;;;;;59.63;36.57;;;1.00;99.90;;;;;;4989190;28;20227;-62
2021/03/25 02:13:43;;;;;;;57.93;36.77;;;0.70;99.90;;;;;;4989971;28;20511;-62
2021/03/25 02:16:15;;;;;;;54.87;34.57;;;0.90;99.90;;;;;;5010739;28;20421;-61
2021/03/25 02:19:11;;;;;;;53.90;35.77;;;0.70;99.90;;;;;;5008516;28;20297;-62
2021/03/25 02:22:11;;;;;;;54.00;34.30;;;0.90;99.90;;;;;;4992314;28;20222;-62
2021/03/25 02:24:46;;;;;;;53.13;34.40;;;0.70;99.90;;;;;;5025632;28;20767;-62
2021/03/25 02:27:37;;;;;;;52.80;33.70;;;0.70;99.90;;;;;;4991244;28;20734;-60
2021/03/25 02:30:07;;;;;;;52.60;32.53;;;0.80;99.90;;;;;;5010827;28;20456;-60
2021/03/25 02:32:46;;;;;;;52.57;32.57;;;0.70;99.90;;;;;;5008421;28;20310;-62
2021/03/25 02:35:22;;;;;;;52.37;33.63;;;0.80;99.90;;;;;;4992119;28;20222;-62
2021/03/25 02:37:55;;;;;;;50.00;33.23;;;2.00;99.90;;;;;;4988728;28;20522;-62
2021/03/25 02:40:28;;;;;;;50.53;32.57;;;1.50;99.90;;;;;;5015083;28;20335;-61
2021/03/25 02:43:06;;;;;;;44.43;29.20;;;0.70;99.90;;;;;;5011111;28;20826;-62
2021/03/25 02:45:35;;;;;;;43.37;28.03;;;0.60;99.90;;;;;;5007610;28;20360;-60
2021/03/25 02:48:07;;;;;;;54.13;31.57;;;0.70;99.90;;;;;;5010915;28;20680;-62
2021/03/25 02:50:40;;;;;;;47.30;29.97;;;0.60;99.90;;;;;;5009882;28;20255;-62
2021/03/25 02:53:15;;;;;;;48.83;32.13;;;1.30;99.90;;;;;;5010390;28;21036;-62
2021/03/25 02:55:41;;;;;;;52.67;33.50;;;1.70;99.90;;;;;;4991536;28;20226;-62
2021/03/25 02:58:19;;;;;;;48.37;32.03;;;0.70;99.90;;;;;;4991215;28;20469;-62
2021/03/25 03:00:49;;;;;;;53.30;33.50;;;0.50;99.90;;;;;;4991908;28;20219;-62
2021/03/25 03:03:22;;;;;;;58.50;35.33;;;1.30;99.90;;;;;;4991785;28;20354;-61
2021/03/25 03:06:24;;;;;;;54.87;32.93;;;0.50;99.90;;;;;;4991487;28;20377;-61
2021/03/25 03:09:00;;;;;;;52.27;32.80;;;0.60;99.90;;;;;;4991155;28;20375;-61
2021/03/25 03:11:33;;;;;;;60.37;35.90;;;0.40;99.90;;;;;;4991245;28;20237;-62
2021/03/25 03:14:05;;;;;;;60.03;36.63;;;0.40;99.90;;;;;;4991716;28;20357;-61
2021/03/25 03:16:40;;;;;;;47.73;30.70;;;0.50;99.90;;;;;;4990404;28;20248;-61
2021/03/25 03:19:12;;;;;;;54.37;34.43;;;1.10;99.90;;;;;;4991594;28;20927;-62
2021/03/25 03:21:42;;;;;;;55.13;31.87;;;0.50;99.90;;;;;;4991322;28;20226;-59
2021/03/25 03:24:21;;;;;;;58.70;35.30;;;0.40;99.90;;;;;;4990852;28;20803;-60
2021/03/25 03:26:59;;;;;;;44.80;28.97;;;1.10;99.90;;;;;;4990984;28;20675;-62
2021/03/25 03:29:28;;;;;;;53.70;33.13;;;0.90;99.90;;;;;;5010170;28;20296;-62
2021/03/25 03:32:01;;;;;;;56.63;34.90;;;0.60;99.90;;;;;;4991468;28;20410;-61
2021/03/25 03:34:46;;;;;;;57.37;35.37;;;1.00;99.90;;;;;;4991413;28;20316;-61
2021/03/25 03:37:19;;;;;;;58.37;35.10;;;0.40;99.90;;;;;;4991152;28;20223;-61
2021/03/25 03:39:53;;;;;;;59.23;37.67;;;0.40;99.90;;;;;;5022374;28;20576;-60
2021/03/25 03:42:32;;;;;;;58.97;37.10;;;0.50;99.90;;;;;;4991101;28;20629;-62
2021/03/25 03:45:00;;;;;;;60.73;36.07;;;0.40;99.90;;;;;;5010102;28;20532;-60
2021/03/25 03:47:35;;;;;;;47.47;29.13;;;0.40;99.90;;;;;;5009721;28;20233;-62
2021/03/25 03:50:09;;;;;;;66.37;38.63;;;0.40;99.90;;;;;;5009742;28;20581;-62
2021/03/25 03:52:39;;;;;;;68.53;38.53;;;0.30;99.90;;;;;;4990509;28;20688;-62
2021/03/25 03:55:09;;;;;;;67.37;38.90;;;1.20;99.90;;;;;;5009714;28;21020;-61
2021/03/25 03:57:45;;;;;;;61.93;36.90;;;0.20;99.90;;;;;;4990689;28;20779;-62
2021/03/25 04:00:27;;;;;;;50.50;31.33;;;0.40;99.90;;;;;;4993272;28;20851;-62
2021/03/25 04:03:12;;;;;;;64.83;36.70;;;1.40;99.90;;;;;;5028783;28;20221;-62
2021/03/25 04:06:02;;;;;;;64.13;35.87;;;0.30;99.90;;;;;;5007168;28;20621;-61
2021/03/25 04:08:48;;;;;;;62.83;36.60;;;0.30;99.90;;;;;;4990428;28;20296;-62
2021/03/25 04:11:24;;;;;;;59.30;35.03;;;0.30;99.90;;;;;;5008787;28;20339;-62
2021/03/25 04:13:53;;;;;;;62.57;36.57;;;0.30;99.90;;;;;;4990683;28;20233;-62
2021/03/25 04:16:23;;;;;;;64.10;37.70;;;0.30;99.90;;;;;;4991016;28;20764;-61
2021/03/25 04:18:56;;;;;;;53.60;34.40;;;0.30;99.90;;;;;;4990743;28;20490;-61
2021/03/25 04:21:39;;;;;;;60.77;35.97;;;0.30;99.90;;;;;;5008699;28;20667;-62
2021/03/25 04:24:09;;;;;;;56.93;33.33;;;0.30;99.90;;;;;;5008955;28;20565;-62
2021/03/25 04:26:42;;;;;;;52.13;32.57;;;0.30;99.90;;;;;;5008329;28;20525;-61
2021/03/25 04:29:13;;;;;;;61.87;36.33;;;0.50;99.90;;;;;;5008795;28;20366;-61
2021/03/25 04:31:40;;;;;;;59.10;34.33;;;0.30;99.90;;;;;;5009158;28;20301;-61
2021/03/25 04:34:07;;;;;;;61.50;35.20;;;0.90;99.90;;;;;;5008741;28;20265;-62
2021/03/25 04:36:38;;;;;;;50.30;31.53;;;0.30;99.90;;;;;;5007761;28;20277;-60
2021/03/25 04:39:06;;;;;;;61.10;35.67;;;0.40;99.90;;;;;;5008477;28;20812;-62
2021/03/25 04:41:35;;;;;;;61.13;34.97;;;0.50;99.90;;;;;;5008370;28;20297;-61
2021/03/25 04:44:05;;;;;;;62.33;36.83;;;0.40;99.90;;;;;;5008782;28;20224;-62
2021/03/25 04:46:50;;;;;;;58.17;35.47;;;0.40;99.90;;;;;;5008970;28;20525;-61
2021/03/25 04:49:32;;;;;;;62.03;34.60;;;0.40;99.90;;;;;;5008769;28;20519;-62
2021/03/25 04:52:02;;;;;;;61.03;35.57;;;0.40;99.90;;;;;;5002264;28;21003;-60
2021/03/25 04:54:33;;;;;;;61.20;36.07;;;0.20;99.90;;;;;;5008754;28;20415;-62
2021/03/25 04:57:05;;;;;;;64.63;35.87;;;0.30;99.90;;;;;;4989698;28;20608;-61
2021/03/25 04:59:32;;;;;;;59.70;36.20;;;0.20;99.90;;;;;;5008608;28;20644;-62
2021/03/25 05:02:00;;;;;;;62.40;35.40;;;0.20;99.90;;;;;;5011786;28;20253;-61
2021/03/25 05:04:27;;;;;;;58.27;33.57;;;0.20;99.90;;;;;;5008319;28;20967;-62
2021/03/25 05:06:56;;;;;;;60.40;33.10;;;0.30;99.90;;;;;;4989748;28;20503;-62
2021/03/25 05:09:25;;;;;;;56.50;32.43;;;1.00;99.90;;;;;;5008559;28;20241;-60
2021/03/25 05:11:52;;;;;;;59.10;32.47;;;0.30;99.90;;;;;;5008212;28;20512;-62
2021/03/25 05:14:20;;;;;;;62.00;35.57;;;0.30;99.90;;;;;;5008083;28;20724;-63
2021/03/25 05:17:01;;;;;;;61.50;34.80;;;0.20;99.90;;;;;;5008527;28;20245;-62
2021/03/25 05:19:47;;;;;;;65.27;35.80;;;0.30;99.90;;;;;;5007973;28;20593;-62
2021/03/25 05:22:20;;;;;;;58.57;33.93;;;0.30;99.90;;;;;;5008118;28;20963;-63
2021/03/25 05:24:52;;;;;;;59.67;34.77;;;0.40;99.90;;;;;;5008529;28;20551;-62
2021/03/25 05:27:24;;;;;;;62.97;35.67;;;0.50;99.90;;;;;;5007563;28;20450;-62
2021/03/25 05:29:55;;;;;;;62.37;37.90;;;0.50;99.90;;;;;;4989787;28;20230;-61
2021/03/25 05:32:26;;;;;;;57.90;34.93;;;1.00;99.90;;;;;;5008144;28;20473;-61
2021/03/25 05:34:54;;;;;;;62.80;33.53;;;0.80;99.90;;;;;;5007770;28;20482;-62
2021/03/25 05:37:21;;;;;;;61.13;34.70;;;0.80;99.90;;;;;;5007861;28;20218;-61
2021/03/25 05:39:51;;;;;;;55.57;32.30;;;0.90;99.90;;;;;;5007850;28;20493;-61
2021/03/25 05:42:26;;;;;;;56.67;34.03;;;1.10;99.90;;;;;;5008131;28;20698;-66
2021/03/25 05:45:20;;;;;;;58.77;32.63;;;1.40;99.90;;;;;;5007072;28;20469;-62
2021/03/25 05:48:11;;;;;;;61.47;34.33;;;1.20;99.90;;;;;;5001778;28;20328;-62
2021/03/25 05:50:47;;;;;;;58.13;34.07;;;1.30;99.90;;;;;;5004159;28;20257;-61
2021/03/25 05:53:27;;;;;;;55.70;32.57;;;1.40;99.90;;;;;;5003959;28;20993;-62
2021/03/25 05:56:09;;;;;;;59.77;34.43;;;1.90;99.90;;;;;;5003905;28;20592;-61
2021/03/25 05:58:39;;;;;;;58.83;35.07;;;1.70;99.90;;;;;;5000094;28;20241;-62
2021/03/25 06:01:23;;;;;;;58.23;34.03;;;1.70;99.90;;;;;;5004116;28;20843;-61
2021/03/25 06:03:59;;;;;;;50.47;32.40;;;1.80;99.90;;;;;;5005158;28;20646;-62
2021/03/25 06:06:39;;;;;;;56.53;33.80;;;2.60;99.90;;;;;;5004161;28;20839;-62
2021/03/25 06:09:13;;;;;;;53.47;32.97;;;1.90;99.90;;;;;;5004541;28;20666;-62
2021/03/25 06:11:51;;;;;;;55.33;32.87;;;2.10;99.90;;;;;;5004574;28;20245;-63
2021/03/25 06:14:30;;;;;;;47.53;31.00;;;2.30;99.90;;;;;;5003678;28;20224;-61
2021/03/25 06:17:17;;;;;;;53.03;32.00;;;2.30;99.90;;;;;;5004054;28;20603;-62
2021/03/25 06:20:06;;;;;;;51.27;31.47;;;2.30;99.90;;;;;;5004757;28;20225;-62
2021/03/25 06:22:38;;;;;;;48.97;31.43;;;2.60;99.90;;;;;;5000877;28;20776;-62
2021/03/25 06:25:39;;;;;;;52.37;32.57;;;3.30;99.90;;;;;;5004453;28;20233;-61
2021/03/25 06:28:24;;;;;;;48.50;30.97;;;2.90;99.90;;;;;;5001999;28;20307;-62
2021/03/25 06:31:13;;;;;;;48.10;32.40;;;3.20;99.90;;;;;;5003240;28;20489;-62
2021/03/25 06:33:47;;;;;;;47.07;31.07;;;3.40;99.90;;;;;;5004597;28;20218;-62
2021/03/25 06:36:17;;;;;;;46.17;29.87;;;3.70;99.90;;;;;;5004205;28;20670;-62
2021/03/25 06:38:47;;;;;;;49.10;31.57;;;3.90;99.90;;;;;;5004238;28;20285;-62
2021/03/25 06:41:18;;;;;;;49.50;33.13;;;4.10;99.90;;;;;;5003926;28;20590;-62
2021/03/25 06:43:50;;;;;;;62.03;33.90;;;4.40;99.90;;;;;;5003705;28;20905;-61
2021/03/25 06:46:22;;;;;;;47.87;31.40;;;4.50;99.90;;;;;;5003424;28;20577;-62
2021/03/25 06:48:52;;;;;;;51.07;34.90;;;4.90;99.90;;;;;;5004472;28;20222;-62
2021/03/25 06:51:23;;;;;;;44.23;30.10;;;5.10;99.90;;;;;;5004350;28;20223;-62
2021/03/25 06:53:52;;;;;;;46.70;29.87;;;5.40;99.90;;;;;;5003676;28;20626;-62
2021/03/25 06:56:29;;;;;;;44.50;30.63;;;5.90;99.90;;;;;;5003930;28;20565;-62
2021/03/25 06:58:59;;;;;;;43.57;29.67;;;6.00;99.90;;;;;;5003174;28;20233;-62
2021/03/25 07:01:31;;;;;;;39.80;25.80;;;6.40;99.90;;;;;;5006664;28;20328;-62
2021/03/25 07:04:02;;;;;;;45.90;29.93;;;7.10;99.90;;;;;;5007090;28;20486;-62
2021/03/25 07:06:31;;;;;;;41.87;27.93;;;6.80;99.90;;;;;;5006810;28;20226;-62
2021/03/25 07:08:58;;;;;;;38.07;27.00;;;7.90;99.90;;;;;;5007866;28;20293;-62
2021/03/25 07:11:28;;;;;;;39.97;27.17;;;7.50;99.90;;;;;;4988454;28;20341;-63
2021/03/25 07:14:00;;;;;;;42.57;28.33;;;7.90;99.90;;;;;;5006672;28;20536;-63
2021/03/25 07:16:29;;;;;;;33.90;24.33;;;8.00;99.90;;;;;;4988799;28;20477;-62
2021/03/25 07:19:02;;;;;;;34.07;24.73;;;8.00;99.90;;;;;;5007528;28;20472;-62
2021/03/25 07:21:33;;;;;;;37.53;26.43;;;8.40;99.90;;;;;;5006974;28;20959;-62
2021/03/25 07:24:01;;;;;;;37.00;25.07;;;8.80;99.90;;;;;;5006947;28;20495;-62
2021/03/25 07:26:35;;;;;;;34.53;24.63;;;9.00;99.90;;;;;;5007180;28;20705;-61
2021/03/25 07:29:17;;;;;;;31.93;23.33;;;9.20;99.90;;;;;;5007589;28;20226;-62
2021/03/25 07:31:51;;;;;;;32.83;23.47;;;9.40;99.90;;;;;;5006680;28;20222;-62
2021/03/25 07:34:31;;;;;;;38.60;25.10;;;9.80;99.90;;;;;;5006739;28;20344;-62
2021/03/25 07:36:59;;;;;;;35.20;24.37;;;10.00;99.90;;;;;;5006408;28;20639;-62
2021/03/25 07:39:29;;;;;;;32.87;23.17;;;10.10;99.90;;;;;;4988374;28;20639;-62
2021/03/25 07:41:57;;;;;;;32.23;24.03;;;10.10;99.90;;;;;;5007443;28;21143;-62
2021/03/25 07:44:32;;;;;;;34.17;24.73;;;11.40;99.90;;;;;;5006948;28;20942;-63
2021/03/25 07:47:01;;;;;;;31.20;23.20;;;11.20;99.90;;;;;;5014357;28;20324;-63
2021/03/25 07:49:30;;;;;;;30.20;22.40;;;10.50;99.90;;;;;;5009437;28;20550;-61
2021/03/25 07:52:03;;;;;;;29.17;22.40;;;10.70;99.90;;;;;;5006247;28;20266;-61
2021/03/25 07:54:32;;;;;;;29.40;21.73;;;10.80;99.90;;;;;;5006672;28;20474;-62
2021/03/25 07:57:03;;;;;;;28.83;22.30;;;11.00;99.90;;;;;;5006675;28;20730;-62
2021/03/25 07:59:34;;;;;;;32.83;22.00;;;11.20;99.90;;;;;;5006394;28;20222;-62
2021/03/25 08:02:01;;;;;;;28.40;21.57;;;11.50;99.90;;;;;;5006513;28;20359;-62
2021/03/25 08:04:29;;;;;;;27.00;20.43;;;11.70;99.90;;;;;;5006106;28;20577;-62
2021/03/25 08:07:02;;;;;;;30.13;22.40;;;12.10;99.90;;;;;;5006624;28;20230;-62
2021/03/25 08:09:29;;;;;;;28.40;20.30;;;12.30;99.90;;;;;;5006650;28;20377;-62
2021/03/25 08:11:58;;;;;;;30.80;21.33;;;12.60;99.90;;;;;;4986694;28;20763;-63
2021/03/25 08:14:27;;;;;;;28.77;20.07;;;13.00;99.90;;;;;;5002412;28;20265;-62
2021/03/25 08:16:59;;;;;;;26.40;17.00;;;13.20;99.90;;;;;;5005805;28;20242;-62
2021/03/25 08:19:39;;;;;;;25.97;19.63;;;13.30;97.00;;;;;;5006355;28;20226;-63
2021/03/25 08:22:20;;;;;;;26.67;19.23;;;13.50;95.60;;;;;;5006006;28;20905;-62
2021/03/25 08:25:30;;;;;;;27.43;18.57;;;13.80;92.70;;;;;;5006420;28;20551;-63
2021/03/25 08:28:10;;;;;;;25.80;17.23;;;14.00;91.30;;;;;;5002823;28;20803;-62
2021/03/25 08:31:00;;;;;;;24.93;17.67;;;13.90;88.70;;;;;;5005411;28;20444;-62
2021/03/25 08:33:39;;;;;;;27.47;18.53;;;14.20;87.20;;;;;;4998256;28;20453;-61
2021/03/25 08:36:16;;;;;;;24.73;17.43;;;14.30;82.60;;;;;;5005629;28;20497;-63
2021/03/25 08:39:16;;;;;;;23.57;16.93;;;14.40;78.90;;;;;;5005832;28;20245;-61
2021/03/25 08:41:48;;;;;;;23.10;16.70;;;14.30;76.90;;;;;;4989575;28;20232;-62
2021/03/25 08:44:25;;;;;;;26.37;17.03;;;14.30;78.80;;;;;;5005372;28;20588;-61
2021/03/25 08:46:56;;;;;;;24.53;17.63;;;15.10;75.90;;;;;;5004781;28;20582;-63
2021/03/25 08:49:28;;;;;;;25.57;17.77;;;15.10;74.10;;;;;;5005733;28;20305;-62
2021/03/25 08:51:57;;;;;;;26.13;18.30;;;14.90;72.20;;;;;;5005296;28;20500;-63
2021/03/25 08:54:28;;;;;;;26.73;17.57;;;15.20;71.90;;;;;;5005098;28;21012;-62
2021/03/25 08:56:57;;;;;;;25.03;17.60;;;15.30;68.90;;;;;;5005009;28;20352;-62
2021/03/25 08:59:27;;;;;;;26.37;17.87;;;15.50;66.00;;;;;;5005252;28;20225;-63
2021/03/25 09:02:00;;;;;;;24.10;17.23;;;15.40;65.70;;;;;;5004954;28;20812;-62
2021/03/25 09:04:34;;;;;;;25.70;18.40;;;16.00;66.50;;;;;;5005380;28;20229;-62
2021/03/25 09:07:04;;;;;;;26.73;19.43;;;15.60;64.40;;;;;;5004618;28;20678;-62
2021/03/25 09:09:38;;;;;;;25.13;17.30;;;15.60;62.90;;;;;;5005168;28;20952;-61
2021/03/25 09:12:11;;;;;;;23.85;17.40;;;15.70;63.80;;;;;;5005078;28;20239;-62
2021/03/25 09:14:38;;;;;;;27.80;17.48;;;15.80;63.60;;;;;;5004935;28;20587;-61
2021/03/25 09:17:08;;;;;;;26.10;17.85;;;15.90;61.70;;;;;;5005050;28;20222;-61
2021/03/25 09:19:42;;;;;;;29.27;17.97;;;16.40;61.30;;;;;;5005137;28;21326;-60
2021/03/25 09:22:08;;;;;;;26.53;17.87;;;16.00;62.60;;;;;;4986235;28;20665;-62
2021/03/25 09:24:35;;;;;;;26.03;17.63;;;16.00;62.80;;;;;;5005556;28;20308;-62
2021/03/25 09:27:05;;;;;;;25.38;17.08;;;16.80;61.00;;;;;;5004875;28;20428;-63
2021/03/25 09:29:35;;;;;;;29.85;17.90;;;16.20;60.00;;;;;;5005396;28;20570;-62
2021/03/25 09:32:40;;;;;;;29.83;18.25;;;16.30;59.30;;;;;;5005265;28;20540;-62
2021/03/25 09:35:36;;;;;;;28.23;18.17;;;16.30;60.00;;;;;;5005477;28;20614;-62
2021/03/25 09:38:03;;;;;;;26.42;17.17;;;16.50;58.30;;;;;;5005273;28;20533;-61
2021/03/25 09:40:43;;;;;;;26.38;18.77;;;16.80;59.60;;;;;;5005258;28;21083;-61
2021/03/25 09:43:39;;;;;;;31.27;18.98;;;18.00;59.10;;;;;;5005330;28;20596;-62
2021/03/25 09:46:38;;;;;;;28.67;18.25;;;17.20;55.00;;;;;;5005151;28;20554;-62
2021/03/25 09:49:28;;;;;;;29.58;19.88;;;17.00;54.90;;;;;;5005328;28;20512;-61
2021/03/25 09:52:26;;;;;;;25.25;18.45;;;17.10;55.10;;;;;;5004854;28;20788;-62
2021/03/25 09:55:16;;;;;;;27.00;19.40;;;17.40;53.70;;;;;;5004250;28;20229;-62
2021/03/25 09:57:44;;;;;;;26.98;19.65;;;17.30;53.90;;;;;;5004597;28;20557;-64
2021/03/25 10:00:32;;;;;;;32.38;19.98;;;17.50;53.70;;;;;;5004649;28;20214;-60
2021/03/25 10:03:01;;;;;;;32.63;18.20;;;17.50;53.80;;;;;;4985470;28;20836;-60
2021/03/25 10:05:39;;;;;;;30.38;18.95;;;15.30;53.10;;;;;;5004233;28;20383;-61
2021/03/25 10:08:46;;;;;;;30.98;18.48;;;17.50;53.50;;;;;;5004432;28;20221;-62
2021/03/25 10:11:54;;;;;;;27.98;18.65;;;17.70;52.70;;;;;;4985868;28;20562;-62
2021/03/25 10:14:43;;;;;;;31.25;18.45;;;17.90;53.20;;;;;;4974125;28;20526;-62
2021/03/25 10:17:09;;;;;;;33.13;18.38;;;18.30;52.10;;;;;;4985750;28;20390;-62
2021/03/25 10:19:47;;;;;;;29.25;18.83;;;18.60;52.70;;;;;;5004879;28;20333;-62
2021/03/25 10:22:20;;;;;;;27.33;17.30;;;18.80;52.60;;;;;;5004261;28;20224;-62
2021/03/25 10:24:54;;;;;;;28.92;17.60;;;19.10;52.30;;;;;;5004247;28;20312;-61
2021/03/25 10:27:31;;;;;;;27.02;17.63;;;19.30;51.30;;;;;;5004635;28;21174;-62
2021/03/25 10:30:03;;;;;;;27.80;18.70;;;19.60;50.60;;;;;;5004953;28;20226;-62
2021/03/25 10:32:34;;;;;;;27.85;18.92;;;19.80;49.90;;;;;;4985896;28;20648;-62
2021/03/25 10:35:03;;;;;;;30.27;18.52;;;20.00;49.00;;;;;;5006466;28;20569;-62
2021/03/25 10:37:34;;;;;;;27.63;18.20;;;20.10;48.70;;;;;;5008176;28;20268;-62
2021/03/25 10:40:10;;;;;;;30.13;20.42;;;20.20;48.20;;;;;;5007750;28;20686;-62
2021/03/25 10:42:40;;;;;;;29.90;19.67;;;20.20;46.80;;;;;;5007687;28;20296;-62
2021/03/25 10:45:22;;;;;;;31.98;20.15;;;20.10;47.50;;;;;;5007667;28;20226;-62
2021/03/25 10:47:55;;;;;;;30.55;19.20;;;19.90;47.20;;;;;;5007380;28;20214;-62
2021/03/25 10:50:29;;;;;;;25.23;17.23;;;19.90;47.40;;;;;;5007196;28;20218;-62
2021/03/25 10:53:00;;;;;;;26.65;18.52;;;19.80;47.10;;;;;;5007906;28;20560;-62
2021/03/25 10:55:30;;;;;;;29.95;18.67;;;19.60;47.70;;;;;;5008091;28;20220;-62
2021/03/25 10:58:00;;;;;;;31.00;19.95;;;19.50;48.30;;;;;;5007207;28;20231;-62
2021/03/25 11:00:29;;;;;;;28.58;19.77;;;19.60;48.30;;;;;;5007646;28;20654;-62
2021/03/25 11:02:58;;;;;;;29.25;19.05;;;19.50;47.20;;;;;;5007521;28;20606;-62
2021/03/25 11:05:28;;;;;;;28.25;19.23;;;19.30;46.90;;;;;;5007051;28;20702;-62
2021/03/25 11:07:58;;;;;;;26.98;18.35;;;19.00;48.00;;;;;;5007565;28;20324;-62
2021/03/25 11:10:27;;;;;;;30.35;18.90;;;18.90;48.60;;;;;;5007133;28;20455;-62
2021/03/25 11:13:00;;;;;;;28.70;19.20;;;18.80;49.10;;;;;;5007054;28;20238;-62
2021/03/25 11:15:35;;;;;;;29.52;19.05;;;18.90;49.20;;;;;;5007245;28;20733;-62
2021/03/25 11:18:16;;;;;;;26.75;18.58;;;19.10;49.40;;;;;;5007234;28;20820;-63
2021/03/25 11:20:44;;;;;;;32.65;19.42;;;19.20;49.00;;;;;;4988313;28;20304;-63
2021/03/25 11:23:14;;;;;;;29.17;18.35;;;19.50;48.50;;;;;;5006959;28;20612;-62
2021/03/25 11:25:40;;;;;;;29.02;17.73;;;19.60;48.20;;;;;;5007020;28;20238;-62
2021/03/25 11:28:12;;;;;;;31.77;19.75;;;19.80;47.30;;;;;;5006613;28;20236;-63
2021/03/25 11:30:41;;;;;;;34.25;18.50;;;19.90;47.10;;;;;;5006756;28;20218;-63
2021/03/25 11:33:32;;;;;;;29.13;18.58;;;20.00;47.40;;;;;;5006809;28;20293;-62
2021/03/25 11:36:01;;;;;;;30.05;19.13;;;20.20;47.40;;;;;;5005855;28;20509;-61
2021/03/25 11:38:33;;;;;;;26.77;17.73;;;20.40;46.00;;;;;;5006426;28;20273;-61
2021/03/25 11:41:02;;;;;;;29.67;19.20;;;20.40;45.60;;;;;;4988332;28;20574;-63
2021/03/25 11:43:41;;;;;;;29.23;19.77;;;20.40;46.00;;;;;;5007410;28;20519;-63
2021/03/25 11:46:08;;;;;;;30.35;19.52;;;20.30;46.70;;;;;;4993356;28;20701;-62
2021/03/25 11:48:37;;;;;;;31.35;19.80;;;20.40;46.00;;;;;;4990937;28;20541;-61
2021/03/25 11:51:25;;;;;;;29.58;18.50;;;20.70;46.00;;;;;;5006608;28;20302;-62
2021/03/25 11:53:53;;;;;;;33.00;19.75;;;20.90;45.80;;;;;;5006407;28;21140;-62
2021/03/25 11:56:23;;;;;;;32.50;18.42;;;21.00;45.50;;;;;;5006164;28;20535;-62
2021/03/25 11:58:51;;;;;;;30.95;19.92;;;21.30;44.70;;;;;;5000222;28;20897;-63
2021/03/25 12:01:24;;;;;;;31.05;19.65;;;21.10;44.50;;;;;;5006812;28;20603;-63
2021/03/25 12:03:52;;;;;;;30.50;20.38;;;21.20;44.60;;;;;;5006094;28;20598;-61
2021/03/25 12:06:21;;;;;;;32.88;19.48;;;21.30;44.70;;;;;;5006110;28;20732;-62
2021/03/25 12:09:04;;;;;;;31.23;19.48;;;21.50;44.50;;;;;;5006471;28;20557;-62
2021/03/25 12:11:34;;;;;;;31.00;18.33;;;21.50;44.60;;;;;;5005978;28;20226;-63
2021/03/25 12:14:00;;;;;;;26.92;18.50;;;21.70;43.90;;;;;;5006276;28;20411;-62
2021/03/25 12:16:26;;;;;;;28.30;18.83;;;21.70;43.90;;;;;;5006301;28;20226;-63
2021/03/25 12:18:58;;;;;;;30.17;19.63;;;21.70;44.00;;;;;;4987935;28;20594;-63
2021/03/25 12:21:25;;;;;;;30.75;19.92;;;21.70;43.80;;;;;;5005936;28;21122;-62
2021/03/25 12:23:55;;;;;;;27.13;18.15;;;21.60;43.60;;;;;;5006494;28;20345;-63
2021/03/25 12:26:21;;;;;;;31.48;18.70;;;21.50;43.90;;;;;;5006265;28;20265;-62
2021/03/25 12:28:48;;;;;;;30.67;20.10;;;21.30;43.40;;;;;;5005581;28;20558;-62
2021/03/25 12:31:17;;;;;;;29.63;20.00;;;21.00;43.50;;;;;;5005753;28;20759;-62
2021/03/25 12:33:44;;;;;;;30.60;20.00;;;20.70;43.70;;;;;;5005708;28;20304;-63
2021/03/25 12:36:12;;;;;;;26.23;19.67;;;20.40;44.90;;;;;;5005562;28;20839;-62
2021/03/25 12:38:38;;;;;;;29.10;19.13;;;20.30;45.50;;;;;;5005337;28;20226;-63
2021/03/25 12:41:06;;;;;;;29.90;19.40;;;20.30;46.00;;;;;;4986340;28;20458;-62
2021/03/25 12:43:35;;;;;;;27.55;18.65;;;20.40;46.00;;;;;;5005591;28;20245;-62
2021/03/25 12:46:04;;;;;;;31.35;20.73;;;20.30;45.60;;;;;;5005163;28;20576;-63
2021/03/25 12:48:34;;;;;;;30.45;20.30;;;20.30;45.20;;;;;;5005690;28;20210;-61
2021/03/25 12:51:02;;;;;;;31.08;19.98;;;20.30;45.60;;;;;;5005274;28;21036;-62
2021/03/25 12:53:32;;;;;;;34.72;19.23;;;20.10;46.30;;;;;;5005296;28;20955;-62
2021/03/25 12:55:59;;;;;;;29.02;20.48;;;20.00;46.10;;;;;;5005427;28;20227;-62
2021/03/25 12:58:32;;;;;;;111.55;56.50;;;20.00;46.40;;;;;;5004688;28;20505;-62
2021/03/25 13:01:02;;;;;;;81.78;55.92;;;19.90;46.60;;;;;;5005484;28;20608;-61
2021/03/25 13:03:28;;;;;;;28.20;22.08;;;20.00;47.00;;;;;;5005449;28;20238;-61
2021/03/25 13:05:55;;;;;;;28.85;20.25;;;20.10;46.60;;;;;;5005189;28;20687;-62